createdAt,value
2018-03-20T00:04:32.125Z,23.4
2018-03-20T00:14:31.017Z,23.2
2018-03-20T00:24:30.218Z,23.3
2018-03-20T00:34:29.509Z,23.3
2018-03-20T00:44:28.668Z,23.6
2018-03-20T00:54:27.805Z,24.4
2018-03-20T01:04:27.084Z,23.3
2018-03-20T01:14:26.262Z,23.3
2018-03-20T01:24:25.563Z,23.4
2018-03-20T01:34:24.661Z,23.4
2018-03-20T01:44:23.907Z,23.8
2018-03-20T01:54:23.046Z,24.1
2018-03-20T02:04:22.531Z,23.2
2018-03-20T02:14:21.460Z,23.1
2018-03-20T02:24:20.751Z,23.3
2018-03-20T02:34:20.056Z,23.4
2018-03-20T02:44:19.113Z,22
2018-03-20T02:54:18.574Z,23.4
2018-03-20T03:04:17.522Z,24.1
2018-03-20T03:14:16.815Z,23.4
2018-03-20T03:24:16.048Z,22.9
2018-03-20T03:34:15.220Z,23.1
2018-03-20T03:44:14.607Z,23.2
2018-03-20T03:54:13.812Z,23.5
2018-03-20T04:04:12.747Z,24.2
2018-03-20T04:14:11.952Z,23.5
2018-03-20T04:24:11.272Z,23
2018-03-20T04:34:10.395Z,23.1
2018-03-20T04:44:09.702Z,23.1
2018-03-20T04:54:08.825Z,23.4
2018-03-20T05:04:08.039Z,24.1
2018-03-20T05:14:07.563Z,23.8
2018-03-20T05:24:06.399Z,23.2
2018-03-20T05:34:05.610Z,23.2
2018-03-20T05:44:04.823Z,23.2
2018-03-20T05:54:04.030Z,23.4
2018-03-20T06:04:03.270Z,24.2
2018-03-20T06:14:02.468Z,22.9
2018-03-20T06:24:01.710Z,22.8
2018-03-20T06:34:01.011Z,23
2018-03-20T06:44:00.166Z,23.2
2018-03-20T06:53:59.297Z,24.2
2018-03-20T07:03:58.498Z,24.1
2018-03-20T07:13:57.787Z,23.1
2018-03-20T07:23:56.948Z,23.6
2018-03-20T07:33:56.131Z,24.1
2018-03-20T07:43:55.334Z,24.6
2018-03-20T07:53:54.683Z,24.8
2018-03-20T08:03:53.787Z,24.7
2018-03-20T08:13:52.993Z,23.6
2018-03-20T08:23:52.188Z,24.6
2018-03-20T08:33:51.674Z,24.6
2018-03-20T08:43:50.717Z,24.3
2018-03-20T08:53:49.904Z,24
2018-03-20T09:03:49.286Z,23.6
2018-03-20T09:13:48.223Z,24.8
2018-03-20T09:23:47.433Z,24.6
2018-03-20T09:33:46.631Z,23.5
2018-03-20T09:43:45.874Z,23.2
2018-03-20T09:53:45.099Z,23.4
2018-03-20T10:03:44.260Z,23.4
2018-03-20T10:13:43.497Z,24.2
2018-03-20T10:23:42.748Z,24.1
2018-03-20T10:33:41.917Z,23.2
2018-03-20T10:43:41.194Z,23.4
2018-03-20T10:53:40.359Z,23.4
2018-03-20T11:03:39.513Z,23.4
2018-03-20T11:13:38.716Z,23.6
2018-03-20T11:23:37.923Z,23.7
2018-03-20T11:33:37.161Z,24.3
2018-03-20T11:43:36.447Z,23.5
2018-03-20T11:53:35.580Z,23.4
2018-03-20T12:03:34.766Z,23.5
2018-03-20T12:13:33.972Z,24.3
2018-03-20T12:23:33.244Z,24.4
2018-03-20T12:33:32.381Z,24.3
2018-03-20T12:43:31.681Z,23.9
2018-03-20T12:53:30.796Z,23.6
2018-03-20T13:03:30.052Z,23.3
2018-03-20T13:13:29.261Z,22.7
2018-03-20T13:23:28.557Z,22.2
2018-03-20T13:33:27.713Z,21.8
2018-03-20T13:43:26.988Z,21.6
2018-03-20T13:53:26.041Z,21.5
2018-03-20T14:03:25.242Z,21.4
2018-03-20T14:13:24.448Z,21.3
2018-03-20T14:23:23.694Z,21.2
2018-03-20T14:33:22.892Z,21.2
2018-03-20T14:43:22.064Z,21
2018-03-20T14:53:21.548Z,21
2018-03-20T15:03:20.498Z,20.9
2018-03-20T15:13:19.722Z,20.9
2018-03-20T15:23:18.919Z,20.9
2018-03-20T15:33:18.094Z,20.8
2018-03-20T15:43:17.351Z,20.7
2018-03-20T15:53:16.558Z,20.6
2018-03-20T16:03:15.720Z,20.6
2018-03-20T16:13:15.053Z,20.5
2018-03-20T16:23:14.152Z,20.4
2018-03-20T16:33:13.363Z,22.6
2018-03-20T16:43:12.548Z,22.4
2018-03-20T16:53:12.042Z,22.7
2018-03-20T17:03:10.994Z,22.5
2018-03-20T17:13:10.269Z,22.4
2018-03-20T17:23:09.378Z,22.6
2018-03-20T17:33:08.588Z,22.7
2018-03-20T17:43:07.799Z,22.6
2018-03-20T17:53:07.142Z,22.7
2018-03-20T18:03:06.234Z,22.6
2018-03-20T18:13:05.495Z,22.6
2018-03-20T18:23:04.794Z,22.6
2018-03-20T18:33:03.914Z,22.7
2018-03-20T18:43:03.119Z,22.7
2018-03-20T18:53:02.330Z,22.7
2018-03-20T19:03:01.515Z,22.7
2018-03-20T19:13:00.846Z,22.6
2018-03-20T19:22:59.944Z,22.1
2018-03-20T19:32:59.164Z,22.4
2018-03-20T19:42:58.352Z,22.7
2018-03-20T19:52:57.552Z,22.4
2018-03-20T20:02:56.843Z,22.6
2018-03-20T20:12:55.986Z,22.7
2018-03-20T20:22:55.205Z,22.6
2018-03-20T20:32:54.423Z,22.3
2018-03-20T20:42:53.700Z,22.3
2018-03-20T20:52:52.809Z,22.7
2018-03-20T21:02:52.134Z,22.6
2018-03-20T21:12:51.229Z,22.5
2018-03-20T21:22:50.435Z,22.5
2018-03-20T21:32:49.683Z,22.7
2018-03-20T21:42:48.932Z,22.6
2018-03-20T21:52:48.141Z,22.6
2018-03-20T22:02:47.304Z,22.6
2018-03-20T22:12:46.480Z,22.6
2018-03-20T22:22:45.713Z,22.7
2018-03-20T22:32:45.190Z,22.1
2018-03-20T22:42:44.097Z,22.4
2018-03-20T22:52:43.305Z,22.2
2018-03-20T23:02:42.519Z,22.5
2018-03-20T23:12:41.751Z,22.8
2018-03-20T23:22:40.956Z,22.1
2018-03-20T23:32:40.211Z,22.1
2018-03-20T23:42:39.390Z,22.8
2018-03-20T23:52:38.594Z,22.6
